Flight Track Log - Related Links

Times and Time Zones

All times are in EDT time to prevent confusion due to time zone crossing. See the UAL780 flight status page for this flight to view local times or setup timezone preferences in your user account.

Time Position Orientation Groundspeed Altitude Reporting Facility
EDT Latitude Longitude Course Direction KTS MPH feet Rate Location/Type
Fri 06:40:37 PM 38.8833 -77.0667 270° West 162 186 1,500  Level Potomac TRACON
Fri 06:41:44 PM 38.9333 -77.1167 322° Northwest 233 268 4,800 2,882 Climbing Potomac TRACON
Fri 06:42:00 PM 38.9102 -77.3768 322° Northwest  Level FlightAware Approximate
Fri 06:42:44 PM 38.9833 -77.1833 314° West 248 285 7,600  Level Potomac TRACON
Fri 06:43:00 PM 38.9333 -77.4909 270° West  Level FlightAware Approximate
Fri 06:44:00 PM 38.9333 -77.6153 270° West  Level FlightAware Approximate
Fri 06:44:52 PM 38.9811 -77.3994 269° West 311 358 13,000  Level Washington Center
Fri 06:45:00 PM 38.9333 -77.7397 270° West  Level FlightAware Approximate
Fri 06:45:53 PM 38.9772 -77.5194 268° West 323 372 14,600  Level Washington Center
Fri 06:46:51 PM 38.9772 -77.6450 270° West 372 428 16,100 1,361 Climbing Washington Center
Fri 06:47:52 PM 38.9683 -77.7994 266° West 398 458 17,300 893 Climbing Washington Center
Fri 06:48:52 PM 38.9344 -77.9239 251° West 408 470 17,900 1,068 Climbing Washington Center
Fri 06:49:50 PM 38.8983 -78.0642 252° West 413 475 19,400 1,678 Climbing Washington Center
Fri 06:50:50 PM 38.9056 -78.2139 274° West 418 481 21,200 2,132 Climbing Washington Center
Fri 06:51:51 PM 38.9192 -78.3611 277° West 413 475 23,700 1,918 Climbing Washington Center
Fri 06:52:52 PM 38.9325 -78.5031 277° West 413 475 25,100 1,339 Climbing Washington Center
Fri 06:53:52 PM 38.9453 -78.6531 276° West 413 475 26,400 1,373 Climbing Washington Center
Fri 06:54:50 PM 38.9581 -78.8058 276° West 425 489 27,800 1,322 Climbing Washington Center
Fri 06:55:50 PM 38.9725 -78.9586 277° West 430 495 29,000 1,636 Climbing Washington Center
Fri 06:56:51 PM 38.9850 -79.1114 276° West 436 502 31,100 1,339 Climbing Washington Center
Fri 06:57:51 PM 38.9992 -79.2617 277° West 431 496 31,700 1,100 Climbing Washington Center
Fri 06:58:51 PM 39.0111 -79.4144 276° West 431 496 33,300 1,339 Climbing Washington Center
Fri 06:59:52 PM 39.0208 -79.5619 275° West 426 490 34,400 1,160 Climbing Washington Center
Fri 07:00:50 PM 39.0344 -79.7178 276° West 436 502 35,600 756 Climbing Washington Center
Fri 07:01:51 PM 39.0475 -79.8814 276° West 425 489 35,900 637 Climbing Washington Center
Fri 07:03:49 PM 39.0633 -80.1553 274° West 413 475 37,500 637 Climbing Indianapolis Center
Fri 07:04:50 PM 39.0739 -80.3050 275° West 419 482 37,800 244 Climbing Indianapolis Center
Fri 07:05:52 PM 39.0853 -80.4522 276° West 415 478 38,000 97 Climbing Indianapolis Center
Fri 07:06:54 PM 39.1386 -80.6156 293° West 414 476 38,000  Level Indianapolis Center
Fri 07:07:56 PM 39.1950 -80.7464 299° West 422 486 38,000  Level Indianapolis Center
Fri 07:08:58 PM 39.2536 -80.8811 299° West 432 497 38,000  Level Indianapolis Center
Fri 07:10:00 PM 39.3114 -81.0181 299° West 435 501 38,000  Level Indianapolis Center
Fri 07:11:02 PM 39.3714 -81.1550 300° West 440 506 38,000  Level Indianapolis Center
Fri 07:12:03 PM 39.4286 -81.2928 298° West 439 505 38,000  Level Indianapolis Center
Fri 07:13:05 PM 39.4978 -81.4544 299° West 430 495 38,000  Level Indianapolis Center
Fri 07:14:07 PM 39.5536 -81.5894 298° West 426 490 38,000  Level Indianapolis Center
Fri 07:15:09 PM 39.6092 -81.7214 299° West 419 482 38,000  Level Indianapolis Center
Fri 07:16:11 PM 39.6625 -81.8486 299° West 406 467 38,000 -48 Level Indianapolis Center
Fri 07:17:13 PM 39.7206 -81.9889 298° West 413 475 37,900  Descending Indianapolis Center
Fri 07:18:15 PM 39.7750 -82.1200 298° West 409 471 38,000 48 Climbing Indianapolis Center
Fri 07:19:17 PM 39.8281 -82.2492 298° West 403 464 38,000  Level Indianapolis Center
Fri 07:20:18 PM 39.8808 -82.3767 298° West 398 458 38,000 -49 Level Indianapolis Center
Fri 07:21:20 PM 39.9342 -82.5053 298° West 401 461 37,900 -48 Descending Indianapolis Center
Fri 07:22:22 PM 39.9942 -82.6564 297° West 400 460 37,900 48 Level Indianapolis Center
Fri 07:23:24 PM 40.0469 -82.7861 298° West 403 464 38,000  Climbing Indianapolis Center
Fri 07:24:26 PM 40.0992 -82.9147 298° West 400 460 37,900 -48 Descending Indianapolis Center
Fri 07:25:28 PM 40.1511 -83.0422 298° West 396 456 37,900 48 Level Indianapolis Center
Fri 07:26:30 PM 40.2011 -83.1686 297° West 393 452 38,000  Climbing Indianapolis Center
Fri 07:27:32 PM 40.2506 -83.2942 297° West 389 448 37,900 -49 Descending Indianapolis Center
Fri 07:28:33 PM 40.3083 -83.4375 298° West 382 440 37,900  Level Indianapolis Center
Fri 07:29:35 PM 40.3564 -83.5614 297° West 381 438 37,900  Level Indianapolis Center
Fri 07:30:37 PM 40.4053 -83.6858 297° West 384 442 37,900 48 Level Indianapolis Center
Fri 07:31:39 PM 40.4556 -83.8142 297° West 392 451 38,000 -145 Climbing Indianapolis Center
Fri 07:32:41 PM 40.5064 -83.9433 297° West 396 456 37,600 -581 Descending Indianapolis Center
Fri 07:33:43 PM 40.5539 -84.0661 297° West 378 435 36,800 -878 Descending Indianapolis Center
Fri 07:34:44 PM 40.6000 -84.1869 297° West 369 425 35,800 -1,024 Descending Indianapolis Center
Fri 07:35:46 PM 40.6561 -84.3303 297° West 374 430 34,700 -919 Descending Indianapolis Center
Fri 07:36:48 PM 40.7022 -84.4544 296° West 374 430 33,900 -339 Descending Indianapolis Center
Fri 07:37:50 PM 40.7489 -84.5789 296° West 377 434 34,000  Climbing Indianapolis Center
Fri 07:38:52 PM 40.7969 -84.7036 297° West 378 435 33,900 -48 Descending Indianapolis Center
Fri 07:39:54 PM 40.8478 -84.8264 299° West 378 435 33,900 -145 Level Indianapolis Center
Fri 07:40:56 PM 40.8944 -84.9386 299° West 375 432 33,600 -732 Descending Indianapolis Center
Fri 07:41:57 PM 40.9547 -85.0839 299° West 378 435 32,400 -1,073 Descending Indianapolis Center
Fri 07:42:59 PM 41.0056 -85.2061 299° West 380 437 31,400 -1,000 Descending Indianapolis Center
Fri 07:44:15 PM 41.0711 -85.3667 298° West 388 447 30,100 -1,000 Descending Chicago Center
Fri 07:45:17 PM 41.1225 -85.4925 298° West 388 447 29,100 -919 Descending Chicago Center
Fri 07:46:19 PM 41.1731 -85.6181 298° West 387 445 28,200 -968 Descending Chicago Center
Fri 07:47:21 PM 41.2219 -85.7411 298° West 379 436 27,100 -1,500 Descending Chicago Center
Fri 07:48:23 PM 41.2686 -85.8619 297° West 370 426 25,100 -1,016 Descending Chicago Center
Fri 07:49:25 PM 41.2997 -85.9914 288° West 367 422 25,000 -48 Descending Chicago Center
Fri 07:50:27 PM 41.3289 -86.1231 286° West 369 425 25,000  Level Chicago Center
Fri 07:51:29 PM 41.3658 -86.2803 287° West 369 425 25,000 -290 Level Chicago Center
Fri 07:52:31 PM 41.3958 -86.4128 287° West 371 427 24,400 -774 Descending Chicago Center
Fri 07:53:33 PM 41.4256 -86.5425 287° West 368 423 23,400 -1,008 Descending Chicago Center
Fri 07:54:36 PM 41.4539 -86.6706 286° West 361 415 22,300 -1,680 Descending Chicago Center
Fri 07:55:38 PM 41.4853 -86.8097 287° West 351 404 19,900 -2,226 Descending Chicago Center
Fri 07:56:40 PM 41.5131 -86.9322 287° West 347 399 17,700 -2,081 Descending Chicago Center
Fri 07:57:42 PM 41.5400 -87.0533 287° West 344 396 15,600 -2,129 Descending Chicago Center
Fri 07:58:44 PM 41.5664 -87.1769 286° West 346 398 13,300 -2,129 Descending Chicago Center
Fri 07:59:46 PM 41.6197 -87.3053 299° West 339 390 11,200 -1,500 Descending Chicago Center
Fri 08:00:48 PM 41.6739 -87.3964 309° West 321 369 10,200 -823 Descending Chicago Center
Fri 08:01:50 PM 41.7203 -87.4714 310° West 273 314 9,500 -581 Descending Chicago Center
Fri 08:02:52 PM 41.7686 -87.5494 310° West 274 315 9,000 -581 Descending Chicago Center
Fri 08:03:54 PM 41.8281 -87.6111 322° Northwest 272 313 8,300 -484 Descending Chicago Center
Fri 08:04:56 PM 41.8981 -87.6856 322° Northwest 271 312 8,000 -432 Descending Chicago Center
Fri 08:05:59 PM 41.9478 -87.7394 321° Northwest 240 276 7,400 -480 Descending Chicago Center
Fri 08:07:01 PM 41.9958 -87.7908 322° Northwest 226 260 7,000 -194 Descending Chicago Center
Fri 08:08:03 PM 42.0294 -87.8608 303° West 232 267 7,000  Level Chicago Center
Fri 08:08:57 PM 42.0500 -87.9333 291° West 227 261 7,000 53 Level Chicago TRACON
Fri 08:09:57 PM 42.0833 -88.0000 304° West 190 219 7,100 -446 Climbing Chicago TRACON
Fri 08:10:58 PM 42.0833 -88.0833 270° West 193 222 6,100 -1,140 Descending Chicago TRACON
Fri 08:11:58 PM 42.0667 -88.1500 251° West 194 223 4,800 -1,050 Descending Chicago TRACON
Fri 08:12:58 PM 42.0500 -88.2000 246° West 201 231 4,000 -640 Descending Chicago TRACON
Fri 08:13:13 PM 42.0456 -88.2106 240° Southwest 200 230 4,000  Level Chicago Center
Fri 08:14:15 PM 42.0014 -88.1564 138° Southeast 199 229 4,000 -343 Level Chicago Center
Fri 08:14:58 PM 41.9833 -88.1167 121° Southeast 191 220 3,400 -837 Descending Chicago TRACON

Login

Don't have an account? Register now (free) for customized features, flight alerts, and more!